Flight Track Log - Related Links

Times and Time Zones

All times are in EDT time to prevent confusion due to time zone crossing. See the TMC808 flight status page for this flight to view local times or setup timezone preferences in your user account.

Time Position Orientation Groundspeed Altitude Reporting Facility
EDT Latitude Longitude Course Direction KTS MPH feet Rate Location/Type
Fri 07:15:52 PM 40.8167 -74.1500 64° Northeast 197 227 1,500  Level New York TRACON
Fri 07:16:52 PM 40.8167 -74.2167 270° West 209 241 3,800 2,250 Climbing New York TRACON
Fri 07:17:52 PM 40.8167 -74.3000 270° West 253 291 6,000 721 Climbing New York TRACON
Fri 07:19:55 PM 40.9561 -74.2539 14° North 291 335 6,000  Level Boston Center
Fri 07:20:55 PM 41.0319 -74.2122 23° Northeast 271 312 6,000 100 Level Boston Center
Fri 07:21:00 PM 41.0267 -73.5849 64° Northeast  Level FlightAware Approximate
Fri 07:21:55 PM 41.0908 -74.1781 24° Northeast 266 306 6,200  Level Boston Center
Fri 07:22:55 PM 41.1564 -74.1081 39° Northeast 266 306 8,800 2,450 Climbing Boston Center
Fri 07:23:55 PM 41.1803 -74.0369 66° East 276 318 11,100 2,850 Climbing Boston Center
Fri 07:24:55 PM 41.2114 -73.8942 74° East 299 344 14,500 2,850 Climbing Boston Center
Fri 07:25:55 PM 41.2275 -73.7703 80° East 330 380 16,800 1,250 Climbing Boston Center
Fri 07:26:55 PM 41.2375 -73.6325 84° East 359 413 17,000 100 Climbing Boston Center
Fri 07:27:55 PM 41.2472 -73.4892 85° East 384 442 17,000  Level Boston Center
Fri 07:28:55 PM 41.2547 -73.3431 86° East 390 449 17,000  Level Boston Center
Fri 07:29:55 PM 41.2661 -73.2106 83° East 390 449 17,000  Level Boston Center
Fri 07:30:55 PM 41.2733 -73.0642 86° East 390 449 17,000  Level Boston Center
Fri 07:31:55 PM 41.2844 -72.9014 85° East 395 455 17,000  Level Boston Center
Fri 07:32:55 PM 41.2911 -72.7689 86° East 400 460 17,000  Level Boston Center
Fri 07:33:54 PM 41.2997 -72.6364 85° East 405 466 17,000  Level Boston Center
Fri 07:34:55 PM 41.3083 -72.4733 86° East 405 466 17,000  Level Boston Center
Fri 07:35:55 PM 41.3167 -72.3103 86° East 405 466 17,000  Level Boston Center
Fri 07:36:55 PM 41.3267 -72.1581 85° East 411 473 17,000  Level Boston Center
Fri 07:37:55 PM 41.3325 -72.0281 87° East 401 461 17,000  Level Boston Center
Fri 07:38:55 PM 41.3403 -71.8622 86° East 401 461 17,000  Level Boston Center
Fri 07:39:55 PM 41.3478 -71.7294 86° East 406 467 17,000  Level Boston Center
Fri 07:41:07 PM 41.3569 -71.5522 86° East 406 467 17,000  Level Boston Center
Fri 07:42:07 PM 41.3367 -71.3867 99° East 406 467 17,000 -600 Level Boston Center
Fri 07:43:07 PM 41.2939 -71.2658 115° Southeast 406 467 15,800 -1,650 Descending Boston Center
Fri 07:44:07 PM 41.2361 -71.1261 119° Southeast 400 460 13,700 -1,950 Descending Boston Center
Fri 07:45:07 PM 41.1889 -71.0169 120° Southeast 395 455 11,900 -1,350 Descending Boston Center
Fri 07:46:07 PM 41.1411 -70.8744 114° Southeast 380 437 11,000 -750 Descending Boston Center
Fri 07:47:07 PM 41.1333 -70.7672 95° East 362 417 10,400 -1,100 Descending Boston Center
Fri 07:48:07 PM 41.1233 -70.6572 97° East 330 380 8,800 -1,800 Descending Boston Center
Fri 07:49:07 PM 41.1153 -70.5528 96° East 306 352 6,800 -1,900 Descending Boston Center
Fri 07:50:07 PM 41.1178 -70.4536 88° East 283 326 5,000 -950 Descending Boston Center
Fri 07:51:07 PM 41.1286 -70.3567 82° East 269 310 4,900 -50 Descending Boston Center
Fri 07:52:07 PM 41.1456 -70.2597 77° East 269 310 4,900 -900 Level Boston Center
Fri 07:53:07 PM 41.1603 -70.1656 78° East 269 310 3,100 -1,650 Descending Boston Center
Fri 07:54:07 PM 41.1942 -70.0869 60° Northeast 254 292 1,600 -850 Descending Boston Center
Fri 07:55:07 PM 41.2347 -70.0303 46° Northeast 228 262 1,400 -100 Descending Boston Center
Fri 07:56:07 PM 41.2711 -69.9764 48° Northeast 188 216 1,400  Level Boston Center
Fri 07:57:07 PM 41.2967 -70.0003 325° Northwest 134 154 1,400 -350 Level Boston Center
Fri 07:58:07 PM 41.2847 -70.0283 240° Southwest 82 94 700 4,800 Descending Boston Center
Fri 07:59:07 PM 41.2644 -70.0597 229° Southwest 56 64 11,000 10,300 Climbing Boston Center

Login

Don't have an account? Register now (free) for customized features, flight alerts, and more!